Carlsbad, NM

12:42 AM MST on December 09, 2016 (GMT -0700)
Cavern City | | Change Station

Elev 3294 ft 32.33 °N, 104.26 °W | Updated 49 minutes ago

Overcast
Overcast
28 °F
Feels Like 20 °F
N
8
Wind Variable Wind from SSE

Today
High -- | Low -- °F
--% Chance of Precip.
Yesterday
High -- | Low -- °F
Precip. -- in
Pressure 30.55 in
Visibility 10.0 miles
Clouds Overcast 1400 ft
Windchill 20 °F
Dew Point 26 °F
Humidity 92%
Rainfall 0.04 in
Snow Depth Not available.
6:47 AM 4:52 PM
Waxing Gibbous, 71% visible
METAR KCNM 090653Z AUTO 16007KT 10SM OVC014 M02/M03 A3052 RMK AO2 SLP345 T10221033 400171022 TSNO
Pressure 30.55 in
Visibility 10.0 miles
Clouds Overcast 1400 ft
Windchill 20 °F
Dew Point 26 °F
Humidity 92%
Rainfall 0.04 in
Snow Depth Not available.
6:47 AM 4:52 PM
Waxing Gibbous, 71% visible
METAR KCNM 090653Z AUTO 16007KT 10SM OVC014 M02/M03 A3052 RMK AO2 SLP345 T10221033 400171022 TSNO

10-Day Weather Forecast

Almanac

Astronomy

Dec. 09, 2016 Rise Set
Actual Time
Civil Twilight
Nautical Twilight
Astronomical Twilight
Moon
Length of Visible Light
Length of Day
Tomorrow will be .
, % of the Moon is Illuminated

Today's Extremes

State Highs State Lows

Community

WunderPhotos

Upload Photos

1,956,374 photos uploaded!

WunderBlog® & News

Nearby

Air Quality

  Air Quality AQ Index Pollutant
Not available.

Snow Depth

Station Depth Elevation

Earthquake Activity

City Distance Mag. Time & Date
Minimum magnitude displayed is 2.5.

Coastal Water Temperatures

Place Temperature

Stations

Nearby Weather Stations

Station Location Temp. Windchill Dew Point Humidity Wind Precip. Elev Updated Type
                   

Watches & Warnings

There are currently no watches in effect.